sensor_id;sensor_type;location;lat;lon;timestamp;temperature;humidity
49717;DHT22;35609;53.166;7.610;2023-05-14T00:01:25;8.20;99.90
49717;DHT22;35609;53.166;7.610;2023-05-14T00:03:51;8.20;99.90
49717;DHT22;35609;53.166;7.610;2023-05-14T00:06:16;8.00;99.90
49717;DHT22;35609;53.166;7.610;2023-05-14T00:08:42;8.00;99.90
49717;DHT22;35609;53.166;7.610;2023-05-14T00:11:08;7.80;99.90
49717;DHT22;35609;53.166;7.610;2023-05-14T00:13:34;7.70;99.90
49717;DHT22;35609;53.166;7.610;2023-05-14T00:16:00;7.60;99.90
49717;DHT22;35609;53.166;7.610;2023-05-14T00:18:26;7.80;99.90
49717;DHT22;35609;53.166;7.610;2023-05-14T00:20:52;7.50;99.90
49717;DHT22;35609;53.166;7.610;2023-05-14T00:23:22;7.50;99.90
49717;DHT22;35609;53.166;7.610;2023-05-14T00:25:48;7.50;99.90
49717;DHT22;35609;53.166;7.610;2023-05-14T00:28:15;7.60;99.90
49717;DHT22;35609;53.166;7.610;2023-05-14T00:30:40;7.40;99.90
49717;DHT22;35609;53.166;7.610;2023-05-14T00:33:06;7.40;99.90
49717;DHT22;35609;53.166;7.610;2023-05-14T00:35:32;7.30;99.90
49717;DHT22;35609;53.166;7.610;2023-05-14T00:38:00;7.30;99.90
49717;DHT22;35609;53.166;7.610;2023-05-14T00:40:27;7.30;99.90
49717;DHT22;35609;53.166;7.610;2023-05-14T00:42:53;7.20;99.90
49717;DHT22;35609;53.166;7.610;2023-05-14T00:45:19;7.20;99.90
49717;DHT22;35609;53.166;7.610;2023-05-14T00:47:45;7.20;99.90
49717;DHT22;35609;53.166;7.610;2023-05-14T00:50:12;7.10;99.90
49717;DHT22;35609;53.166;7.610;2023-05-14T00:52:39;7.00;99.90
49717;DHT22;35609;53.166;7.610;2023-05-14T00:55:06;7.20;99.90
49717;DHT22;35609;53.166;7.610;2023-05-14T00:57:33;7.00;99.90
49717;DHT22;35609;53.166;7.610;2023-05-14T00:59:59;7.00;99.90
49717;DHT22;35609;53.166;7.610;2023-05-14T01:02:25;7.10;99.90
49717;DHT22;35609;53.166;7.610;2023-05-14T01:04:51;7.20;99.90
49717;DHT22;35609;53.166;7.610;2023-05-14T01:10:09;7.30;99.90
49717;DHT22;35609;53.166;7.610;2023-05-14T01:12:58;7.30;99.90
49717;DHT22;35609;53.166;7.610;2023-05-14T01:15:30;7.20;99.90
49717;DHT22;35609;53.166;7.610;2023-05-14T01:18:00;7.20;99.90
49717;DHT22;35609;53.166;7.610;2023-05-14T01:20:27;7.20;99.90
49717;DHT22;35609;53.166;7.610;2023-05-14T01:22:53;7.10;99.90
49717;DHT22;35609;53.166;7.610;2023-05-14T01:25:19;6.90;99.90
49717;DHT22;35609;53.166;7.610;2023-05-14T01:33:00;6.80;99.90
49717;DHT22;35609;53.166;7.610;2023-05-14T01:35:29;6.80;99.90
49717;DHT22;35609;53.166;7.610;2023-05-14T01:37:57;6.80;99.90
49717;DHT22;35609;53.166;7.610;2023-05-14T01:40:24;6.90;99.90
49717;DHT22;35609;53.166;7.610;2023-05-14T01:42:51;6.90;99.90
49717;DHT22;35609;53.166;7.610;2023-05-14T01:45:21;6.90;99.90
49717;DHT22;35609;53.166;7.610;2023-05-14T01:47:47;6.80;99.90
49717;DHT22;35609;53.166;7.610;2023-05-14T01:50:13;6.90;99.90
49717;DHT22;35609;53.166;7.610;2023-05-14T01:52:39;7.00;99.90
49717;DHT22;35609;53.166;7.610;2023-05-14T01:55:05;7.20;99.90
49717;DHT22;35609;53.166;7.610;2023-05-14T01:57:31;7.20;99.90
49717;DHT22;35609;53.166;7.610;2023-05-14T01:59:57;7.20;99.90
49717;DHT22;35609;53.166;7.610;2023-05-14T02:02:23;7.20;99.90
49717;DHT22;35609;53.166;7.610;2023-05-14T02:04:49;7.10;99.90
49717;DHT22;35609;53.166;7.610;2023-05-14T02:07:15;7.10;99.90
49717;DHT22;35609;53.166;7.610;2023-05-14T02:12:10;6.90;99.90
49717;DHT22;35609;53.166;7.610;2023-05-14T02:14:36;6.90;99.90
49717;DHT22;35609;53.166;7.610;2023-05-14T02:17:02;6.90;99.90
49717;DHT22;35609;53.166;7.610;2023-05-14T02:19:28;6.90;99.90
49717;DHT22;35609;53.166;7.610;2023-05-14T02:21:54;6.90;99.90
49717;DHT22;35609;53.166;7.610;2023-05-14T02:24:20;6.90;99.90
49717;DHT22;35609;53.166;7.610;2023-05-14T02:26:46;6.80;99.90
49717;DHT22;35609;53.166;7.610;2023-05-14T02:29:12;6.80;99.90
49717;DHT22;35609;53.166;7.610;2023-05-14T02:31:38;6.80;99.90
49717;DHT22;35609;53.166;7.610;2023-05-14T02:34:04;6.80;99.90
49717;DHT22;35609;53.166;7.610;2023-05-14T02:36:33;6.80;99.90
49717;DHT22;35609;53.166;7.610;2023-05-14T02:38:59;6.80;99.90
49717;DHT22;35609;53.166;7.610;2023-05-14T02:41:29;7.00;99.90
49717;DHT22;35609;53.166;7.610;2023-05-14T02:43:54;7.10;99.90
49717;DHT22;35609;53.166;7.610;2023-05-14T02:46:20;7.30;99.90
49717;DHT22;35609;53.166;7.610;2023-05-14T02:48:46;7.50;99.90
49717;DHT22;35609;53.166;7.610;2023-05-14T02:51:12;7.50;99.90
49717;DHT22;35609;53.166;7.610;2023-05-14T02:53:37;7.40;99.90
49717;DHT22;35609;53.166;7.610;2023-05-14T02:56:03;7.40;99.90
49717;DHT22;35609;53.166;7.610;2023-05-14T02:58:29;7.30;99.90
49717;DHT22;35609;53.166;7.610;2023-05-14T03:00:55;7.30;99.90
49717;DHT22;35609;53.166;7.610;2023-05-14T03:03:20;7.10;99.90
49717;DHT22;35609;53.166;7.610;2023-05-14T03:05:46;7.00;99.90
49717;DHT22;35609;53.166;7.610;2023-05-14T03:08:12;6.90;99.90
49717;DHT22;35609;53.166;7.610;2023-05-14T03:10:38;6.80;99.90
49717;DHT22;35609;53.166;7.610;2023-05-14T03:13:03;6.80;99.90
49717;DHT22;35609;53.166;7.610;2023-05-14T03:15:29;6.70;99.90
49717;DHT22;35609;53.166;7.610;2023-05-14T03:17:55;6.60;99.90
49717;DHT22;35609;53.166;7.610;2023-05-14T03:20:23;6.70;99.90
49717;DHT22;35609;53.166;7.610;2023-05-14T03:22:50;6.70;99.90
49717;DHT22;35609;53.166;7.610;2023-05-14T03:25:16;6.70;99.90
49717;DHT22;35609;53.166;7.610;2023-05-14T03:27:41;6.70;99.90
49717;DHT22;35609;53.166;7.610;2023-05-14T03:30:07;6.70;99.90
49717;DHT22;35609;53.166;7.610;2023-05-14T03:32:33;6.70;99.90
49717;DHT22;35609;53.166;7.610;2023-05-14T03:34:59;6.80;99.90
49717;DHT22;35609;53.166;7.610;2023-05-14T03:37:25;6.80;99.90
49717;DHT22;35609;53.166;7.610;2023-05-14T03:39:51;6.80;99.90
49717;DHT22;35609;53.166;7.610;2023-05-14T03:42:16;6.70;99.90
49717;DHT22;35609;53.166;7.610;2023-05-14T03:44:42;6.70;99.90
49717;DHT22;35609;53.166;7.610;2023-05-14T03:47:08;6.70;99.90
49717;DHT22;35609;53.166;7.610;2023-05-14T03:49:34;6.60;99.90
49717;DHT22;35609;53.166;7.610;2023-05-14T03:51:59;6.60;99.90
49717;DHT22;35609;53.166;7.610;2023-05-14T03:54:25;6.60;99.90
49717;DHT22;35609;53.166;7.610;2023-05-14T03:56:51;6.50;99.90
49717;DHT22;35609;53.166;7.610;2023-05-14T03:59:17;6.60;99.90
49717;DHT22;35609;53.166;7.610;2023-05-14T04:01:43;6.60;99.90
49717;DHT22;35609;53.166;7.610;2023-05-14T04:04:09;6.80;99.90
49717;DHT22;35609;53.166;7.610;2023-05-14T04:06:35;6.70;99.90
49717;DHT22;35609;53.166;7.610;2023-05-14T04:09:01;6.60;99.90
49717;DHT22;35609;53.166;7.610;2023-05-14T04:11:27;6.60;99.90
49717;DHT22;35609;53.166;7.610;2023-05-14T04:13:53;6.50;99.90
49717;DHT22;35609;53.166;7.610;2023-05-14T04:16:19;6.60;99.90
49717;DHT22;35609;53.166;7.610;2023-05-14T04:18:44;6.70;99.90
49717;DHT22;35609;53.166;7.610;2023-05-14T04:21:10;6.60;99.90
49717;DHT22;35609;53.166;7.610;2023-05-14T04:23:36;6.60;99.90
49717;DHT22;35609;53.166;7.610;2023-05-14T04:26:02;6.70;99.90
49717;DHT22;35609;53.166;7.610;2023-05-14T04:28:29;6.90;99.90
49717;DHT22;35609;53.166;7.610;2023-05-14T04:30:55;7.10;99.90
49717;DHT22;35609;53.166;7.610;2023-05-14T04:33:21;7.30;99.90
49717;DHT22;35609;53.166;7.610;2023-05-14T04:35:46;7.30;99.90
49717;DHT22;35609;53.166;7.610;2023-05-14T04:38:12;7.50;99.90
49717;DHT22;35609;53.166;7.610;2023-05-14T04:40:39;7.50;99.90
49717;DHT22;35609;53.166;7.610;2023-05-14T04:43:06;7.60;99.90
49717;DHT22;35609;53.166;7.610;2023-05-14T04:45:32;7.70;99.90
49717;DHT22;35609;53.166;7.610;2023-05-14T04:47:58;7.70;99.90
49717;DHT22;35609;53.166;7.610;2023-05-14T04:50:24;7.60;99.90
49717;DHT22;35609;53.166;7.610;2023-05-14T04:52:50;7.70;99.90
49717;DHT22;35609;53.166;7.610;2023-05-14T04:55:16;7.80;99.90
49717;DHT22;35609;53.166;7.610;2023-05-14T04:57:42;7.80;99.90
49717;DHT22;35609;53.166;7.610;2023-05-14T05:00:08;7.90;99.90
49717;DHT22;35609;53.166;7.610;2023-05-14T05:02:34;8.10;99.90
49717;DHT22;35609;53.166;7.610;2023-05-14T05:05:01;8.10;99.90
49717;DHT22;35609;53.166;7.610;2023-05-14T05:07:27;8.20;99.90
49717;DHT22;35609;53.166;7.610;2023-05-14T05:09:53;8.30;99.90
49717;DHT22;35609;53.166;7.610;2023-05-14T05:12:19;8.40;99.90
49717;DHT22;35609;53.166;7.610;2023-05-14T05:14:45;8.50;99.90
49717;DHT22;35609;53.166;7.610;2023-05-14T05:17:11;8.60;99.90
49717;DHT22;35609;53.166;7.610;2023-05-14T05:19:37;8.50;99.90
49717;DHT22;35609;53.166;7.610;2023-05-14T05:22:03;8.90;99.90
49717;DHT22;35609;53.166;7.610;2023-05-14T05:24:29;8.80;99.90
49717;DHT22;35609;53.166;7.610;2023-05-14T05:26:55;8.90;99.90
49717;DHT22;35609;53.166;7.610;2023-05-14T05:29:21;9.00;99.90
49717;DHT22;35609;53.166;7.610;2023-05-14T05:31:48;9.10;99.90
49717;DHT22;35609;53.166;7.610;2023-05-14T05:34:13;9.20;99.90
49717;DHT22;35609;53.166;7.610;2023-05-14T05:36:39;9.40;99.90
49717;DHT22;35609;53.166;7.610;2023-05-14T05:39:05;9.60;99.90
49717;DHT22;35609;53.166;7.610;2023-05-14T05:41:31;9.80;99.90
49717;DHT22;35609;53.166;7.610;2023-05-14T05:43:57;10.00;99.90
49717;DHT22;35609;53.166;7.610;2023-05-14T05:46:23;10.10;99.90
49717;DHT22;35609;53.166;7.610;2023-05-14T05:48:48;10.30;99.90
49717;DHT22;35609;53.166;7.610;2023-05-14T05:51:14;10.40;99.90
49717;DHT22;35609;53.166;7.610;2023-05-14T05:53:40;10.60;99.90
49717;DHT22;35609;53.166;7.610;2023-05-14T05:56:06;10.70;99.90
49717;DHT22;35609;53.166;7.610;2023-05-14T05:58:32;10.80;99.90
49717;DHT22;35609;53.166;7.610;2023-05-14T06:00:58;10.90;99.90
49717;DHT22;35609;53.166;7.610;2023-05-14T06:03:24;11.00;99.90
49717;DHT22;35609;53.166;7.610;2023-05-14T06:05:49;11.00;99.90
49717;DHT22;35609;53.166;7.610;2023-05-14T06:08:17;11.10;99.90
49717;DHT22;35609;53.166;7.610;2023-05-14T06:10:43;11.30;99.90
49717;DHT22;35609;53.166;7.610;2023-05-14T06:13:08;11.50;99.90
49717;DHT22;35609;53.166;7.610;2023-05-14T06:15:34;11.60;99.90
49717;DHT22;35609;53.166;7.610;2023-05-14T06:18:00;11.80;99.90
49717;DHT22;35609;53.166;7.610;2023-05-14T06:20:25;11.80;99.90
49717;DHT22;35609;53.166;7.610;2023-05-14T06:22:51;12.10;99.90
49717;DHT22;35609;53.166;7.610;2023-05-14T06:25:17;12.50;99.90
49717;DHT22;35609;53.166;7.610;2023-05-14T06:27:43;12.90;99.90
49717;DHT22;35609;53.166;7.610;2023-05-14T06:30:09;13.30;99.90
49717;DHT22;35609;53.166;7.610;2023-05-14T06:32:35;13.40;99.90
49717;DHT22;35609;53.166;7.610;2023-05-14T10:31:53;24.70;94.80
49717;DHT22;35609;53.166;7.610;2023-05-14T10:37:05;24.50;92.00
49717;DHT22;35609;53.166;7.610;2023-05-14T10:39:49;24.80;90.40
49717;DHT22;35609;53.166;7.610;2023-05-14T10:42:23;24.90;93.50
49717;DHT22;35609;53.166;7.610;2023-05-14T10:45:02;25.00;91.80
49717;DHT22;35609;53.166;7.610;2023-05-14T10:47:31;25.20;92.80
49717;DHT22;35609;53.166;7.610;2023-05-14T10:49:58;25.50;93.30
49717;DHT22;35609;53.166;7.610;2023-05-14T10:52:25;25.90;91.10
49717;DHT22;35609;53.166;7.610;2023-05-14T10:54:53;26.10;90.80
49717;DHT22;35609;53.166;7.610;2023-05-14T10:57:21;26.10;90.60
49717;DHT22;35609;53.166;7.610;2023-05-14T10:59:48;25.90;90.80
49717;DHT22;35609;53.166;7.610;2023-05-14T11:02:19;26.00;91.20
49717;DHT22;35609;53.166;7.610;2023-05-14T11:05:00;25.50;83.70
49717;DHT22;35609;53.166;7.610;2023-05-14T11:07:32;25.50;90.60
49717;DHT22;35609;53.166;7.610;2023-05-14T11:10:15;25.50;91.10
49717;DHT22;35609;53.166;7.610;2023-05-14T11:12:45;25.60;90.10
49717;DHT22;35609;53.166;7.610;2023-05-14T11:15:18;25.00;87.90
49717;DHT22;35609;53.166;7.610;2023-05-14T11:17:46;25.50;90.20
49717;DHT22;35609;53.166;7.610;2023-05-14T11:20:12;25.80;91.50
49717;DHT22;35609;53.166;7.610;2023-05-14T11:22:40;26.30;88.20
49717;DHT22;35609;53.166;7.610;2023-05-14T11:25:06;26.60;85.40
49717;DHT22;35609;53.166;7.610;2023-05-14T11:27:35;26.30;87.10
49717;DHT22;35609;53.166;7.610;2023-05-14T11:30:01;26.30;90.40
49717;DHT22;35609;53.166;7.610;2023-05-14T11:32:28;26.40;87.60
49717;DHT22;35609;53.166;7.610;2023-05-14T11:34:56;26.20;85.60
49717;DHT22;35609;53.166;7.610;2023-05-14T11:37:22;26.40;90.40
49717;DHT22;35609;53.166;7.610;2023-05-14T11:39:49;26.10;90.70
49717;DHT22;35609;53.166;7.610;2023-05-14T11:42:15;26.40;90.10
49717;DHT22;35609;53.166;7.610;2023-05-14T11:44:47;26.70;86.10
49717;DHT22;35609;53.166;7.610;2023-05-14T11:47:14;26.50;79.50
49717;DHT22;35609;53.166;7.610;2023-05-14T11:49:40;25.70;84.40
49717;DHT22;35609;53.166;7.610;2023-05-14T11:52:08;26.40;86.00
49717;DHT22;35609;53.166;7.610;2023-05-14T11:54:39;26.90;88.60
49717;DHT22;35609;53.166;7.610;2023-05-14T11:57:14;26.50;87.60
49717;DHT22;35609;53.166;7.610;2023-05-14T11:59:40;27.10;84.50
49717;DHT22;35609;53.166;7.610;2023-05-14T12:02:13;27.30;87.30
49717;DHT22;35609;53.166;7.610;2023-05-14T12:04:40;27.30;86.80
49717;DHT22;35609;53.166;7.610;2023-05-14T12:07:14;27.20;85.80
49717;DHT22;35609;53.166;7.610;2023-05-14T12:09:47;27.60;85.50
49717;DHT22;35609;53.166;7.610;2023-05-14T12:12:19;27.30;89.10
49717;DHT22;35609;53.166;7.610;2023-05-14T12:14:45;27.30;89.40
49717;DHT22;35609;53.166;7.610;2023-05-14T12:17:16;27.50;85.60
49717;DHT22;35609;53.166;7.610;2023-05-14T12:19:43;27.30;82.80
49717;DHT22;35609;53.166;7.610;2023-05-14T12:22:10;27.20;86.40
49717;DHT22;35609;53.166;7.610;2023-05-14T12:24:36;26.80;85.20
49717;DHT22;35609;53.166;7.610;2023-05-14T12:27:03;27.00;88.90
49717;DHT22;35609;53.166;7.610;2023-05-14T12:29:29;27.10;89.10
49717;DHT22;35609;53.166;7.610;2023-05-14T12:31:56;27.20;85.40
49717;DHT22;35609;53.166;7.610;2023-05-14T12:34:23;26.90;88.80
49717;DHT22;35609;53.166;7.610;2023-05-14T12:36:49;27.00;88.80
49717;DHT22;35609;53.166;7.610;2023-05-14T12:39:15;27.40;85.50
49717;DHT22;35609;53.166;7.610;2023-05-14T12:41:41;27.30;85.40
49717;DHT22;35609;53.166;7.610;2023-05-14T12:44:06;27.20;83.50
49717;DHT22;35609;53.166;7.610;2023-05-14T12:46:32;27.40;84.40
49717;DHT22;35609;53.166;7.610;2023-05-14T12:48:58;27.70;79.10
49717;DHT22;35609;53.166;7.610;2023-05-14T12:51:24;27.50;82.50
49717;DHT22;35609;53.166;7.610;2023-05-14T12:53:50;27.50;80.30
49717;DHT22;35609;53.166;7.610;2023-05-14T12:56:18;27.50;79.10
49717;DHT22;35609;53.166;7.610;2023-05-14T12:58:45;27.40;81.30
49717;DHT22;35609;53.166;7.610;2023-05-14T13:01:11;26.80;75.40
49717;DHT22;35609;53.166;7.610;2023-05-14T13:03:37;27.10;81.80
49717;DHT22;35609;53.166;7.610;2023-05-14T13:06:03;26.80;80.00
49717;DHT22;35609;53.166;7.610;2023-05-14T13:08:29;27.20;87.70
49717;DHT22;35609;53.166;7.610;2023-05-14T13:10:55;27.40;83.10
49717;DHT22;35609;53.166;7.610;2023-05-14T13:13:21;27.90;81.00
49717;DHT22;35609;53.166;7.610;2023-05-14T13:15:48;27.90;79.80
49717;DHT22;35609;53.166;7.610;2023-05-14T13:18:14;28.00;80.10
49717;DHT22;35609;53.166;7.610;2023-05-14T13:20:41;28.00;84.30
49717;DHT22;35609;53.166;7.610;2023-05-14T13:23:06;27.80;85.70
49717;DHT22;35609;53.166;7.610;2023-05-14T13:25:32;27.90;82.60
49717;DHT22;35609;53.166;7.610;2023-05-14T13:27:58;28.00;76.90
49717;DHT22;35609;53.166;7.610;2023-05-14T13:30:24;27.70;77.40
49717;DHT22;35609;53.166;7.610;2023-05-14T13:32:50;27.20;78.80
49717;DHT22;35609;53.166;7.610;2023-05-14T13:35:15;27.10;80.80
49717;DHT22;35609;53.166;7.610;2023-05-14T13:37:44;27.40;77.50
49717;DHT22;35609;53.166;7.610;2023-05-14T13:40:10;27.30;78.70
49717;DHT22;35609;53.166;7.610;2023-05-14T13:42:36;27.20;78.90
49717;DHT22;35609;53.166;7.610;2023-05-14T13:45:04;27.20;77.90
49717;DHT22;35609;53.166;7.610;2023-05-14T13:47:30;27.00;76.20
49717;DHT22;35609;53.166;7.610;2023-05-14T13:49:57;26.70;84.50
49717;DHT22;35609;53.166;7.610;2023-05-14T13:52:22;26.50;83.10
49717;DHT22;35609;53.166;7.610;2023-05-14T13:54:48;26.40;82.20
49717;DHT22;35609;53.166;7.610;2023-05-14T13:57:14;26.20;82.40
49717;DHT22;35609;53.166;7.610;2023-05-14T13:59:40;25.90;82.00
49717;DHT22;35609;53.166;7.610;2023-05-14T14:02:06;25.90;84.50
49717;DHT22;35609;53.166;7.610;2023-05-14T14:04:32;26.00;80.60
49717;DHT22;35609;53.166;7.610;2023-05-14T14:06:58;26.00;85.40
49717;DHT22;35609;53.166;7.610;2023-05-14T14:09:24;26.00;84.60
49717;DHT22;35609;53.166;7.610;2023-05-14T14:22:05;26.10;82.20
49717;DHT22;35609;53.166;7.610;2023-05-14T14:24:31;26.10;81.10
49717;DHT22;35609;53.166;7.610;2023-05-14T14:26:57;25.90;81.50
49717;DHT22;35609;53.166;7.610;2023-05-14T14:29:22;26.20;80.80
49717;DHT22;35609;53.166;7.610;2023-05-14T14:31:48;26.30;73.60
49717;DHT22;35609;53.166;7.610;2023-05-14T14:34:14;26.30;79.40
49717;DHT22;35609;53.166;7.610;2023-05-14T14:36:39;25.80;77.20
49717;DHT22;35609;53.166;7.610;2023-05-14T14:39:05;25.80;76.90
49717;DHT22;35609;53.166;7.610;2023-05-14T14:41:31;25.90;77.00
49717;DHT22;35609;53.166;7.610;2023-05-14T14:43:56;25.60;79.20
49717;DHT22;35609;53.166;7.610;2023-05-14T14:46:22;25.60;81.00
49717;DHT22;35609;53.166;7.610;2023-05-14T14:48:48;25.20;74.30
49717;DHT22;35609;53.166;7.610;2023-05-14T14:51:14;25.20;78.90
49717;DHT22;35609;53.166;7.610;2023-05-14T14:53:40;24.90;75.10
49717;DHT22;35609;53.166;7.610;2023-05-14T14:56:05;24.60;80.70
49717;DHT22;35609;53.166;7.610;2023-05-14T14:58:31;24.40;82.00
49717;DHT22;35609;53.166;7.610;2023-05-14T15:00:57;24.50;81.00
49717;DHT22;35609;53.166;7.610;2023-05-14T15:03:24;24.80;81.50
49717;DHT22;35609;53.166;7.610;2023-05-14T15:05:49;24.50;80.60
49717;DHT22;35609;53.166;7.610;2023-05-14T15:08:16;24.80;76.80
49717;DHT22;35609;53.166;7.610;2023-05-14T15:10:43;24.80;84.30
49717;DHT22;35609;53.166;7.610;2023-05-14T15:13:09;24.70;82.20
49717;DHT22;35609;53.166;7.610;2023-05-14T15:15:35;24.70;82.00
49717;DHT22;35609;53.166;7.610;2023-05-14T15:18:02;24.50;82.30
49717;DHT22;35609;53.166;7.610;2023-05-14T15:20:29;24.30;82.10
49717;DHT22;35609;53.166;7.610;2023-05-14T15:22:55;24.40;82.50
49717;DHT22;35609;53.166;7.610;2023-05-14T15:25:22;24.50;85.70
49717;DHT22;35609;53.166;7.610;2023-05-14T15:27:48;24.40;86.10
49717;DHT22;35609;53.166;7.610;2023-05-14T15:30:15;24.60;83.50
49717;DHT22;35609;53.166;7.610;2023-05-14T15:32:41;24.40;86.50
49717;DHT22;35609;53.166;7.610;2023-05-14T15:35:08;24.60;87.10
49717;DHT22;35609;53.166;7.610;2023-05-14T15:37:38;24.60;83.00
49717;DHT22;35609;53.166;7.610;2023-05-14T15:40:06;24.20;82.70
49717;DHT22;35609;53.166;7.610;2023-05-14T15:42:34;24.10;79.90
49717;DHT22;35609;53.166;7.610;2023-05-14T15:45:00;24.00;77.60
49717;DHT22;35609;53.166;7.610;2023-05-14T15:47:25;23.80;79.90
49717;DHT22;35609;53.166;7.610;2023-05-14T15:49:51;23.80;80.80
49717;DHT22;35609;53.166;7.610;2023-05-14T15:52:17;23.70;80.80
49717;DHT22;35609;53.166;7.610;2023-05-14T15:54:45;23.60;81.40
49717;DHT22;35609;53.166;7.610;2023-05-14T15:57:11;23.60;80.60
49717;DHT22;35609;53.166;7.610;2023-05-14T15:59:37;23.60;85.20
49717;DHT22;35609;53.166;7.610;2023-05-14T16:02:03;23.70;85.20
49717;DHT22;35609;53.166;7.610;2023-05-14T16:04:29;23.70;85.30
49717;DHT22;35609;53.166;7.610;2023-05-14T16:07:02;23.50;79.70
49717;DHT22;35609;53.166;7.610;2023-05-14T16:09:29;23.60;81.70
49717;DHT22;35609;53.166;7.610;2023-05-14T16:11:55;23.50;82.90
49717;DHT22;35609;53.166;7.610;2023-05-14T16:14:20;23.00;81.70
49717;DHT22;35609;53.166;7.610;2023-05-14T16:16:47;23.20;85.50
49717;DHT22;35609;53.166;7.610;2023-05-14T16:19:13;23.10;83.60
49717;DHT22;35609;53.166;7.610;2023-05-14T16:21:39;23.20;79.90
49717;DHT22;35609;53.166;7.610;2023-05-14T16:24:06;23.20;81.90
49717;DHT22;35609;53.166;7.610;2023-05-14T16:26:32;23.30;80.50
49717;DHT22;35609;53.166;7.610;2023-05-14T16:28:58;23.40;79.80
49717;DHT22;35609;53.166;7.610;2023-05-14T16:31:24;23.10;79.00
49717;DHT22;35609;53.166;7.610;2023-05-14T16:33:49;23.00;81.10
49717;DHT22;35609;53.166;7.610;2023-05-14T16:36:15;23.00;81.10
49717;DHT22;35609;53.166;7.610;2023-05-14T16:38:41;22.90;83.60
49717;DHT22;35609;53.166;7.610;2023-05-14T16:41:07;22.90;84.80
49717;DHT22;35609;53.166;7.610;2023-05-14T16:43:34;22.90;84.10
49717;DHT22;35609;53.166;7.610;2023-05-14T16:46:00;22.80;86.10
49717;DHT22;35609;53.166;7.610;2023-05-14T16:48:26;22.90;86.10
49717;DHT22;35609;53.166;7.610;2023-05-14T16:50:52;22.80;85.80
49717;DHT22;35609;53.166;7.610;2023-05-14T16:53:18;22.80;86.10
49717;DHT22;35609;53.166;7.610;2023-05-14T16:55:43;22.60;87.00
49717;DHT22;35609;53.166;7.610;2023-05-14T16:58:09;22.40;86.70
49717;DHT22;35609;53.166;7.610;2023-05-14T17:00:35;22.40;88.50
49717;DHT22;35609;53.166;7.610;2023-05-14T17:03:01;22.40;87.00
49717;DHT22;35609;53.166;7.610;2023-05-14T17:05:26;22.50;88.40
49717;DHT22;35609;53.166;7.610;2023-05-14T17:07:52;22.20;87.20
49717;DHT22;35609;53.166;7.610;2023-05-14T17:10:18;22.30;87.40
49717;DHT22;35609;53.166;7.610;2023-05-14T17:12:44;22.30;88.60
49717;DHT22;35609;53.166;7.610;2023-05-14T17:15:10;22.10;89.90
49717;DHT22;35609;53.166;7.610;2023-05-14T17:17:36;22.00;88.90
49717;DHT22;35609;53.166;7.610;2023-05-14T17:20:02;22.00;89.20
49717;DHT22;35609;53.166;7.610;2023-05-14T17:22:30;21.80;91.60
49717;DHT22;35609;53.166;7.610;2023-05-14T17:24:56;21.90;90.60
49717;DHT22;35609;53.166;7.610;2023-05-14T17:27:22;21.80;90.60
49717;DHT22;35609;53.166;7.610;2023-05-14T17:29:48;21.70;91.00
49717;DHT22;35609;53.166;7.610;2023-05-14T17:32:16;21.70;91.70
49717;DHT22;35609;53.166;7.610;2023-05-14T17:34:42;21.50;91.20
49717;DHT22;35609;53.166;7.610;2023-05-14T17:37:08;21.40;90.50
49717;DHT22;35609;53.166;7.610;2023-05-14T17:39:34;21.40;89.40
49717;DHT22;35609;53.166;7.610;2023-05-14T17:41:59;21.20;90.50
49717;DHT22;35609;53.166;7.610;2023-05-14T17:44:25;21.10;90.20
49717;DHT22;35609;53.166;7.610;2023-05-14T17:46:51;20.90;91.20
49717;DHT22;35609;53.166;7.610;2023-05-14T17:49:16;20.80;91.90
49717;DHT22;35609;53.166;7.610;2023-05-14T17:51:42;20.80;92.80
49717;DHT22;35609;53.166;7.610;2023-05-14T17:54:08;20.80;93.10
49717;DHT22;35609;53.166;7.610;2023-05-14T17:56:33;20.60;93.20
49717;DHT22;35609;53.166;7.610;2023-05-14T17:58:59;20.70;92.40
49717;DHT22;35609;53.166;7.610;2023-05-14T18:01:25;20.70;92.70
49717;DHT22;35609;53.166;7.610;2023-05-14T18:03:51;20.50;92.70
49717;DHT22;35609;53.166;7.610;2023-05-14T18:06:17;20.40;93.00
49717;DHT22;35609;53.166;7.610;2023-05-14T18:08:42;20.30;95.10
49717;DHT22;35609;53.166;7.610;2023-05-14T18:11:08;20.10;94.90
49717;DHT22;35609;53.166;7.610;2023-05-14T18:13:34;20.00;97.30
49717;DHT22;35609;53.166;7.610;2023-05-14T18:15:59;19.90;98.40
49717;DHT22;35609;53.166;7.610;2023-05-14T18:18:25;19.70;99.50
49717;DHT22;35609;53.166;7.610;2023-05-14T18:20:51;19.60;99.90
49717;DHT22;35609;53.166;7.610;2023-05-14T18:23:17;19.40;99.90
49717;DHT22;35609;53.166;7.610;2023-05-14T18:25:43;19.30;99.10
49717;DHT22;35609;53.166;7.610;2023-05-14T18:28:09;19.30;98.90
49717;DHT22;35609;53.166;7.610;2023-05-14T18:30:34;19.20;99.30
49717;DHT22;35609;53.166;7.610;2023-05-14T18:33:00;19.00;99.70
49717;DHT22;35609;53.166;7.610;2023-05-14T18:35:26;18.80;99.70
49717;DHT22;35609;53.166;7.610;2023-05-14T18:37:52;18.70;99.90
49717;DHT22;35609;53.166;7.610;2023-05-14T18:40:19;18.60;99.90
49717;DHT22;35609;53.166;7.610;2023-05-14T18:42:45;18.40;99.90
49717;DHT22;35609;53.166;7.610;2023-05-14T18:45:10;18.30;99.90
49717;DHT22;35609;53.166;7.610;2023-05-14T18:47:36;18.10;99.90
49717;DHT22;35609;53.166;7.610;2023-05-14T18:50:07;18.00;99.90
49717;DHT22;35609;53.166;7.610;2023-05-14T18:52:33;17.80;99.90
49717;DHT22;35609;53.166;7.610;2023-05-14T18:54:58;17.70;99.90
49717;DHT22;35609;53.166;7.610;2023-05-14T18:57:27;17.40;99.90
49717;DHT22;35609;53.166;7.610;2023-05-14T19:00:00;17.40;99.90
49717;DHT22;35609;53.166;7.610;2023-05-14T19:02:26;17.40;99.90
49717;DHT22;35609;53.166;7.610;2023-05-14T19:04:52;17.20;99.90
49717;DHT22;35609;53.166;7.610;2023-05-14T19:07:19;17.00;99.90
49717;DHT22;35609;53.166;7.610;2023-05-14T19:09:44;17.00;99.90
49717;DHT22;35609;53.166;7.610;2023-05-14T19:12:16;17.00;99.90
49717;DHT22;35609;53.166;7.610;2023-05-14T19:14:42;16.80;99.90
49717;DHT22;35609;53.166;7.610;2023-05-14T19:17:08;16.60;99.90
49717;DHT22;35609;53.166;7.610;2023-05-14T19:19:46;16.60;99.90
49717;DHT22;35609;53.166;7.610;2023-05-14T19:22:12;16.50;99.90
49717;DHT22;35609;53.166;7.610;2023-05-14T19:24:37;16.40;99.90
49717;DHT22;35609;53.166;7.610;2023-05-14T19:27:04;16.40;99.90
49717;DHT22;35609;53.166;7.610;2023-05-14T19:29:30;16.30;99.90
49717;DHT22;35609;53.166;7.610;2023-05-14T19:31:58;16.10;99.90
49717;DHT22;35609;53.166;7.610;2023-05-14T19:34:24;15.90;99.90
49717;DHT22;35609;53.166;7.610;2023-05-14T19:36:51;15.70;99.90
49717;DHT22;35609;53.166;7.610;2023-05-14T19:39:17;15.60;99.90
49717;DHT22;35609;53.166;7.610;2023-05-14T19:41:42;15.40;99.90
49717;DHT22;35609;53.166;7.610;2023-05-14T19:44:08;15.30;99.90
49717;DHT22;35609;53.166;7.610;2023-05-14T19:46:34;15.10;99.90
49717;DHT22;35609;53.166;7.610;2023-05-14T19:48:59;14.90;99.90
49717;DHT22;35609;53.166;7.610;2023-05-14T19:51:25;15.00;99.90
49717;DHT22;35609;53.166;7.610;2023-05-14T19:53:51;14.90;99.90